createdAt,value
2018-04-22T00:01:19.398Z,81.12
2018-04-22T00:03:46.869Z,81.20
2018-04-22T00:06:14.362Z,81.72
2018-04-22T00:08:41.837Z,82.10
2018-04-22T00:11:09.340Z,82.38
2018-04-22T00:13:36.810Z,82.84
2018-04-22T00:16:04.305Z,82.72
2018-04-22T00:18:31.781Z,82.58
2018-04-22T00:20:59.278Z,82.83
2018-04-22T00:23:26.749Z,82.82
2018-04-22T00:25:54.520Z,82.63
2018-04-22T00:28:22.047Z,82.95
2018-04-22T00:30:49.539Z,83.28
2018-04-22T00:33:17.022Z,82.95
2018-04-22T00:35:44.515Z,82.56
2018-04-22T00:38:11.980Z,84.33
2018-04-22T00:40:39.493Z,84.61
2018-04-22T00:43:06.957Z,85.01
2018-04-22T00:45:34.427Z,83.29
2018-04-22T00:48:01.910Z,83.30
2018-04-22T00:50:29.383Z,83.00
2018-04-22T00:52:56.870Z,83.06
2018-04-22T00:55:24.690Z,82.40
2018-04-22T00:57:52.180Z,82.01
2018-04-22T01:00:19.657Z,82.15
2018-04-22T01:02:47.150Z,82.19
2018-04-22T01:05:14.718Z,82.18
2018-04-22T01:07:42.225Z,82.31
2018-04-22T01:10:09.858Z,82.32
2018-04-22T01:12:37.343Z,82.00
2018-04-22T01:15:04.829Z,82.38
2018-04-22T01:17:32.329Z,82.98
2018-04-22T01:19:59.795Z,82.90
2018-04-22T01:22:27.266Z,83.11
2018-04-22T01:24:54.757Z,82.51
2018-04-22T01:27:22.238Z,82.40
2018-04-22T01:29:49.730Z,82.42
2018-04-22T01:32:17.198Z,86.53
2018-04-22T01:34:44.690Z,87.85
2018-04-22T01:37:12.154Z,88.00
2018-04-22T01:39:39.643Z,88.62
2018-04-22T01:42:07.107Z,88.76
2018-04-22T01:44:34.598Z,88.48
2018-04-22T01:47:02.065Z,88.44
2018-04-22T01:49:29.558Z,89.16
2018-04-22T01:51:57.034Z,89.49
2018-04-22T01:54:24.526Z,89.38
2018-04-22T01:56:51.994Z,89.03
2018-04-22T01:59:19.492Z,88.96
2018-04-22T02:01:46.963Z,88.37
2018-04-22T02:04:14.452Z,87.95
2018-04-22T02:06:41.919Z,87.71
2018-04-22T02:09:09.414Z,86.93
2018-04-22T02:11:36.888Z,86.54
2018-04-22T02:14:04.396Z,87.02
2018-04-22T02:16:31.861Z,86.22
2018-04-22T02:18:59.355Z,87.88
2018-04-22T02:21:26.825Z,88.30
2018-04-22T02:23:54.321Z,87.35
2018-04-22T02:26:21.786Z,86.83
2018-04-22T02:28:49.274Z,86.75
2018-04-22T02:31:16.747Z,85.53
2018-04-22T02:33:44.218Z,87.66
2018-04-22T02:36:11.717Z,88.88
2018-04-22T02:38:39.181Z,88.42
2018-04-22T02:41:06.683Z,87.79
2018-04-22T02:43:34.214Z,87.44
2018-04-22T02:46:01.682Z,86.95
2018-04-22T02:48:29.153Z,86.45
2018-04-22T02:50:56.640Z,87.17
2018-04-22T02:53:24.114Z,88.52
2018-04-22T02:55:51.610Z,88.64
2018-04-22T02:58:19.083Z,89.37
2018-04-22T03:00:46.567Z,89.36
2018-04-22T03:03:14.036Z,88.93
2018-04-22T03:05:41.522Z,88.54
2018-04-22T03:08:08.981Z,88.13
2018-04-22T03:10:36.474Z,87.82
2018-04-22T03:13:03.937Z,87.39
2018-04-22T03:15:31.435Z,87.14
2018-04-22T03:17:58.910Z,87.09
2018-04-22T03:20:26.399Z,88.56
2018-04-22T03:22:53.865Z,88.74
2018-04-22T03:25:21.350Z,87.94
2018-04-22T03:27:48.823Z,87.50
2018-04-22T03:30:16.309Z,87.06
2018-04-22T03:32:43.775Z,87.26
2018-04-22T03:35:11.261Z,87.26
2018-04-22T03:37:38.734Z,87.36
2018-04-22T03:40:06.214Z,86.96
2018-04-22T03:42:33.789Z,87.31
2018-04-22T03:45:01.279Z,87.32
2018-04-22T03:47:28.742Z,87.15
2018-04-22T03:49:56.242Z,87.15
2018-04-22T03:52:23.709Z,87.23
2018-04-22T03:54:51.189Z,87.65
2018-04-22T03:57:18.662Z,87.74
2018-04-22T03:59:46.131Z,87.76
2018-04-22T04:02:13.613Z,87.73
2018-04-22T04:04:41.081Z,87.71
2018-04-22T04:07:08.565Z,87.49
2018-04-22T04:09:36.034Z,88.37
2018-04-22T04:12:03.521Z,88.30
2018-04-22T04:14:30.991Z,87.70
2018-04-22T04:16:58.478Z,88.57
2018-04-22T04:19:37.661Z,88.24
2018-04-22T04:22:16.817Z,88.72
2018-04-22T04:24:56.954Z,88.22
2018-04-22T04:30:23.253Z,87.66
2018-04-22T04:32:50.746Z,87.16
2018-04-22T04:35:18.207Z,86.66
2018-04-22T04:37:45.698Z,86.99
2018-04-22T04:40:13.174Z,86.90
2018-04-22T04:42:40.662Z,87.21
2018-04-22T04:45:08.126Z,87.10
2018-04-22T04:47:35.610Z,86.99
2018-04-22T04:50:03.076Z,87.03
2018-04-22T04:52:30.571Z,86.95
2018-04-22T04:54:58.034Z,86.72
2018-04-22T04:57:25.521Z,86.44
2018-04-22T04:59:52.978Z,86.03
2018-04-22T05:02:20.457Z,85.98
2018-04-22T05:04:47.925Z,86.24
2018-04-22T05:07:15.413Z,85.93
2018-04-22T05:09:42.883Z,86.05
2018-04-22T05:12:10.365Z,85.57
2018-04-22T05:14:37.834Z,85.23
2018-04-22T05:17:05.322Z,85.36
2018-04-22T05:19:32.797Z,84.65
2018-04-22T05:22:00.299Z,84.04
2018-04-22T05:24:27.761Z,83.90
2018-04-22T05:26:55.242Z,83.62
2018-04-22T05:29:22.712Z,83.33
2018-04-22T05:31:50.198Z,83.92
2018-04-22T05:34:17.664Z,83.73
2018-04-22T05:36:45.198Z,82.92
2018-04-22T05:39:12.658Z,82.34
2018-04-22T05:41:40.149Z,81.76
2018-04-22T05:44:07.623Z,81.43
2018-04-22T05:46:35.098Z,80.78
2018-04-22T05:49:02.578Z,80.11
2018-04-22T05:51:30.041Z,80.73
2018-04-22T05:53:57.555Z,80.37
2018-04-22T05:56:25.026Z,79.99
2018-04-22T05:58:52.509Z,80.14
2018-04-22T06:01:19.979Z,79.71
2018-04-22T06:03:47.467Z,79.32
2018-04-22T06:06:14.934Z,78.85
2018-04-22T06:08:42.413Z,80.05
2018-04-22T06:11:09.878Z,80.02
2018-04-22T06:13:37.362Z,80.73
2018-04-22T06:16:04.826Z,79.47
2018-04-22T06:18:32.322Z,78.64
2018-04-22T06:20:59.784Z,78.61
2018-04-22T06:23:27.265Z,78.24
2018-04-22T06:25:54.802Z,78.51
2018-04-22T06:28:22.298Z,78.50
2018-04-22T06:30:49.779Z,77.48
2018-04-22T06:33:17.270Z,76.76
2018-04-22T06:35:44.743Z,75.02
2018-04-22T06:38:14.354Z,74.13
2018-04-22T06:40:41.817Z,73.17
2018-04-22T06:43:09.307Z,72.13
2018-04-22T06:45:37.175Z,72.04
2018-04-22T06:48:04.663Z,71.40
2018-04-22T06:50:32.138Z,70.94
2018-04-22T06:52:59.626Z,69.71
2018-04-22T06:55:27.089Z,69.31
2018-04-22T06:57:54.580Z,68.14
2018-04-22T07:00:22.043Z,68.25
2018-04-22T07:02:49.533Z,67.68
2018-04-22T07:05:17.043Z,67.79
2018-04-22T07:07:44.535Z,68.22
2018-04-22T07:10:12.027Z,69.18
2018-04-22T07:12:39.510Z,70.09
2018-04-22T07:15:07.003Z,71.07
2018-04-22T07:17:34.489Z,70.92
2018-04-22T07:20:01.975Z,70.11
2018-04-22T07:22:29.480Z,69.41
2018-04-22T07:24:56.957Z,68.71
2018-04-22T07:27:24.418Z,68.63
2018-04-22T07:29:51.959Z,68.44
2018-04-22T07:32:19.426Z,69.08
2018-04-22T07:34:46.918Z,68.36
2018-04-22T07:37:14.491Z,68.02
2018-04-22T07:39:41.973Z,68.05
2018-04-22T07:42:09.437Z,67.87
2018-04-22T07:44:44.491Z,67.12
2018-04-22T07:47:12.073Z,65.52
2018-04-22T07:49:40.333Z,65.07
2018-04-22T07:52:07.912Z,64.70
2018-04-22T07:54:35.469Z,63.26
2018-04-22T07:57:03.011Z,61.98
2018-04-22T07:59:30.514Z,61.38
2018-04-22T08:01:57.987Z,60.99
2018-04-22T08:04:25.475Z,59.79
2018-04-22T08:06:52.942Z,59.63
2018-04-22T08:09:20.424Z,59.13
2018-04-22T08:11:47.926Z,59.25
2018-04-22T08:14:15.406Z,59.84
2018-04-22T08:16:42.886Z,59.43
2018-04-22T08:19:10.366Z,58.04
2018-04-22T08:21:37.826Z,56.29
2018-04-22T08:24:05.305Z,56.59
2018-04-22T08:26:32.761Z,56.96
2018-04-22T08:29:00.300Z,57.40
2018-04-22T08:31:27.768Z,57.29
2018-04-22T08:33:55.324Z,57.50
2018-04-22T08:36:22.790Z,55.83
2018-04-22T08:38:50.293Z,55.69
2018-04-22T08:41:17.753Z,57.02
2018-04-22T08:43:45.221Z,56.23
2018-04-22T08:46:12.784Z,54.52
2018-04-22T08:48:40.251Z,56.66
2018-04-22T08:54:38.546Z,53.61
2018-04-22T08:57:06.080Z,53.74
2018-04-22T08:59:33.566Z,54.20
2018-04-22T09:02:01.035Z,52.48
2018-04-22T09:04:28.521Z,52.80
2018-04-22T09:06:55.982Z,52.98
2018-04-22T09:09:23.457Z,52.96
2018-04-22T09:11:50.917Z,54.35
2018-04-22T09:14:18.397Z,52.77
2018-04-22T09:16:45.853Z,49.15
2018-04-22T09:19:13.322Z,49.75
2018-04-22T09:21:40.797Z,48.75
2018-04-22T09:24:08.253Z,47.48
2018-04-22T09:26:35.729Z,48.53
2018-04-22T09:29:03.189Z,50.81
2018-04-22T09:31:30.673Z,48.39
2018-04-22T09:33:58.131Z,49.49
2018-04-22T09:36:26.466Z,49.20
2018-04-22T09:38:53.983Z,49.08
2018-04-22T09:41:21.457Z,47.30
2018-04-22T09:43:48.926Z,49.13
2018-04-22T09:46:16.401Z,48.89
2018-04-22T09:48:43.858Z,47.44
2018-04-22T09:51:11.347Z,48.38
2018-04-22T09:53:38.810Z,46.75
2018-04-22T09:56:06.290Z,47.18
2018-04-22T09:58:33.747Z,47.75
2018-04-22T10:01:01.292Z,46.79
2018-04-22T10:03:31.590Z,43.89
2018-04-22T10:06:01.855Z,47.33
2018-04-22T10:08:29.313Z,49.02
2018-04-22T10:10:56.842Z,48.35
2018-04-22T10:13:24.261Z,48.27
2018-04-22T10:15:51.738Z,48.57
2018-04-22T10:18:19.198Z,47.19
2018-04-22T10:20:46.673Z,47.38
2018-04-22T10:23:14.130Z,46.86
2018-04-22T10:25:41.598Z,46.40
2018-04-22T10:28:09.050Z,46.62
2018-04-22T10:30:36.576Z,47.36
2018-04-22T10:33:04.015Z,45.11
2018-04-22T10:35:31.502Z,48.21
2018-04-22T10:37:58.965Z,46.39
2018-04-22T10:40:26.438Z,46.08
2018-04-22T10:42:53.886Z,47.46
2018-04-22T10:45:21.338Z,45.01
2018-04-22T10:47:48.809Z,45.87
2018-04-22T10:50:16.264Z,42.82
2018-04-22T10:52:44.368Z,41.62
2018-04-22T10:55:11.833Z,41.01
2018-04-22T10:57:39.321Z,44.11
2018-04-22T11:00:06.781Z,44.68
2018-04-22T11:02:34.256Z,39.39
2018-04-22T11:05:01.741Z,41.38
2018-04-22T11:07:29.218Z,41.32
2018-04-22T11:09:56.683Z,42.35
2018-04-22T11:12:24.158Z,46.24
2018-04-22T11:14:51.622Z,44.85
2018-04-22T11:17:19.097Z,41.88
2018-04-22T11:19:46.551Z,47.46
2018-04-22T11:22:14.022Z,47.04
2018-04-22T11:24:41.470Z,44.64
2018-04-22T11:27:08.949Z,43.31
2018-04-22T11:29:36.405Z,41.34
2018-04-22T11:32:03.877Z,41.88
2018-04-22T11:34:31.332Z,45.07
2018-04-22T11:36:58.810Z,43.58
2018-04-22T11:39:26.266Z,41.88
2018-04-22T11:41:53.733Z,40.47
2018-04-22T11:44:21.187Z,40.45
2018-04-22T11:46:48.670Z,40.64
2018-04-22T11:49:16.124Z,39.09
2018-04-22T11:51:43.602Z,39.89
2018-04-22T11:54:11.049Z,37.62
2018-04-22T11:56:38.522Z,34.99
2018-04-22T11:59:05.982Z,35.72
2018-04-22T12:01:33.462Z,36.41
2018-04-22T12:04:00.963Z,35.09
2018-04-22T12:06:28.460Z,32.87
2018-04-22T12:08:55.934Z,35.35
2018-04-22T12:11:23.398Z,35.85
2018-04-22T12:13:50.874Z,35.72
2018-04-22T12:16:18.330Z,36.14
2018-04-22T12:18:45.809Z,35.76
2018-04-22T12:21:13.276Z,36.01
2018-04-22T12:23:40.765Z,35.31
2018-04-22T12:26:08.223Z,34.69
2018-04-22T12:28:35.721Z,35.23
2018-04-22T12:31:03.175Z,37.15
2018-04-22T12:33:30.655Z,34.48
2018-04-22T12:35:58.117Z,32.53
2018-04-22T12:38:25.606Z,36.39
2018-04-22T12:40:53.083Z,37.70
2018-04-22T12:43:20.569Z,35.73
2018-04-22T12:45:48.036Z,33.53
2018-04-22T12:48:15.509Z,35.58
2018-04-22T12:50:42.979Z,34.22
2018-04-22T12:53:10.463Z,35.11
2018-04-22T12:55:37.917Z,35.80
2018-04-22T12:58:05.426Z,37.69
2018-04-22T13:00:32.888Z,36.18
2018-04-22T13:03:00.373Z,39.46
2018-04-22T13:05:27.830Z,45.32
2018-04-22T13:07:55.319Z,47.85
2018-04-22T13:10:22.782Z,49.19
2018-04-22T13:12:50.276Z,49.04
2018-04-22T13:15:17.733Z,48.67
2018-04-22T13:17:45.219Z,46.42
2018-04-22T13:20:12.690Z,46.54
2018-04-22T13:22:40.170Z,46.85
2018-04-22T13:25:07.632Z,44.75
2018-04-22T13:27:35.107Z,42.53
2018-04-22T13:30:02.565Z,41.69
2018-04-22T13:32:30.050Z,40.29
2018-04-22T13:34:57.506Z,39.28
2018-04-22T13:37:24.969Z,39.02
2018-04-22T13:39:52.465Z,39.60
2018-04-22T13:42:19.930Z,39.70
2018-04-22T13:44:47.418Z,39.60
2018-04-22T13:47:14.888Z,39.71
2018-04-22T13:49:42.357Z,37.89
2018-04-22T13:52:09.826Z,40.37
2018-04-22T13:54:37.314Z,41.08
2018-04-22T13:57:04.782Z,37.67
2018-04-22T13:59:32.268Z,40.18
2018-04-22T14:01:59.729Z,40.10
2018-04-22T14:04:27.232Z,41.91
2018-04-22T14:06:54.711Z,43.90
2018-04-22T14:09:22.194Z,45.91
2018-04-22T14:11:49.654Z,47.59
2018-04-22T14:14:17.129Z,46.64
2018-04-22T14:16:44.646Z,47.18
2018-04-22T14:19:12.122Z,48.00
2018-04-22T14:21:39.583Z,48.35
2018-04-22T14:24:07.053Z,48.46
2018-04-22T14:26:34.509Z,47.93
2018-04-22T14:29:01.982Z,48.66
2018-04-22T14:31:29.442Z,47.81
2018-04-22T14:33:56.922Z,46.85
2018-04-22T14:36:24.381Z,46.86
2018-04-22T14:38:51.862Z,49.44
2018-04-22T14:41:19.336Z,49.77
2018-04-22T14:43:58.620Z,48.56
2018-04-22T14:46:26.086Z,47.31
2018-04-22T14:49:05.264Z,44.61
2018-04-22T14:51:32.717Z,46.01
2018-04-22T14:54:00.190Z,44.73
2018-04-22T14:56:27.646Z,42.75
2018-04-22T14:58:55.851Z,38.65
2018-04-22T15:01:23.311Z,37.92
2018-04-22T15:03:50.794Z,34.43
2018-04-22T15:06:18.277Z,34.41
2018-04-22T15:08:45.769Z,30.78
2018-04-22T15:11:13.270Z,32.75
2018-04-22T15:13:40.726Z,31.98
2018-04-22T15:16:08.210Z,30.64
2018-04-22T15:18:35.677Z,31.55
2018-04-22T15:21:03.154Z,35.25
2018-04-22T15:23:30.609Z,35.44
2018-04-22T15:25:58.082Z,37.12
2018-04-22T15:28:25.533Z,36.94
2018-04-22T15:30:53.013Z,39.61
2018-04-22T15:33:20.473Z,42.40
2018-04-22T15:35:47.951Z,44.77
2018-04-22T15:38:15.410Z,45.63
2018-04-22T15:40:42.886Z,45.98
2018-04-22T15:43:10.354Z,48.86
2018-04-22T15:45:37.835Z,48.97
2018-04-22T15:48:05.298Z,47.44
2018-04-22T15:50:32.789Z,48.97
2018-04-22T15:53:00.279Z,50.27
2018-04-22T15:55:27.753Z,49.01
2018-04-22T15:57:55.215Z,50.95
2018-04-22T16:00:22.689Z,50.69
2018-04-22T16:02:50.154Z,51.28
2018-04-22T16:05:17.643Z,50.80
2018-04-22T16:07:45.096Z,43.30
2018-04-22T16:10:12.575Z,40.90
2018-04-22T16:12:40.035Z,38.13
2018-04-22T16:15:07.514Z,41.60
2018-04-22T16:17:34.988Z,40.51
2018-04-22T16:20:02.542Z,41.95
2018-04-22T16:22:29.997Z,43.15
2018-04-22T16:24:57.483Z,42.85
2018-04-22T16:27:24.944Z,43.63
2018-04-22T16:29:52.420Z,40.49
2018-04-22T16:32:20.673Z,43.38
2018-04-22T16:34:48.157Z,41.61
2018-04-22T16:37:15.729Z,42.51
2018-04-22T16:39:43.185Z,43.51
2018-04-22T16:42:10.669Z,42.42
2018-04-22T16:44:38.994Z,41.45
2018-04-22T16:47:06.479Z,43.33
2018-04-22T16:49:33.934Z,44.64
2018-04-22T16:52:01.420Z,43.61
2018-04-22T16:54:28.870Z,40.21
2018-04-22T16:56:56.345Z,40.12
2018-04-22T16:59:23.806Z,39.22
2018-04-22T17:01:51.282Z,38.40
2018-04-22T17:04:18.733Z,38.64
2018-04-22T17:06:46.205Z,39.44
2018-04-22T17:09:13.680Z,39.13
2018-04-22T17:11:41.153Z,38.84
2018-04-22T17:14:09.545Z,39.45
2018-04-22T17:16:37.031Z,38.94
2018-04-22T17:19:04.485Z,39.77
2018-04-22T17:21:31.964Z,39.39
2018-04-22T17:23:59.427Z,39.56
2018-04-22T17:26:26.905Z,39.88
2018-04-22T17:28:54.372Z,39.81
2018-04-22T17:31:21.870Z,39.55
2018-04-22T17:33:50.329Z,39.46
2018-04-22T17:36:17.810Z,39.64
2018-04-22T17:38:45.629Z,40.28
2018-04-22T17:41:13.110Z,40.69
2018-04-22T17:43:40.566Z,41.49
2018-04-22T17:46:08.054Z,41.87
2018-04-22T17:48:35.514Z,42.27
2018-04-22T17:51:02.993Z,42.86
2018-04-22T17:53:30.450Z,43.16
2018-04-22T17:55:57.926Z,42.72
2018-04-22T17:58:25.382Z,42.82
2018-04-22T18:00:52.857Z,41.80
2018-04-22T18:03:20.315Z,42.40
2018-04-22T18:05:48.009Z,41.79
2018-04-22T18:08:15.489Z,41.67
2018-04-22T18:10:42.949Z,41.80
2018-04-22T18:13:10.446Z,42.17
2018-04-22T18:15:37.910Z,42.38
2018-04-22T18:18:05.390Z,43.10
2018-04-22T18:20:32.853Z,43.36
2018-04-22T18:23:00.348Z,43.09
2018-04-22T18:25:27.801Z,44.75
2018-04-22T18:27:55.289Z,44.70
2018-04-22T18:30:22.746Z,45.26
2018-04-22T18:32:50.232Z,44.99
2018-04-22T18:35:17.685Z,45.25
2018-04-22T18:37:45.165Z,46.38
2018-04-22T18:40:12.623Z,46.54
2018-04-22T18:42:40.110Z,46.94
2018-04-22T18:45:07.570Z,47.73
2018-04-22T18:47:35.049Z,49.49
2018-04-22T18:50:02.847Z,47.97
2018-04-22T18:52:30.322Z,48.53
2018-04-22T18:54:57.797Z,47.61
2018-04-22T18:57:25.278Z,47.80
2018-04-22T18:59:52.754Z,49.66
2018-04-22T19:02:20.237Z,50.81
2018-04-22T19:04:47.705Z,51.09
2018-04-22T19:07:15.244Z,50.92
2018-04-22T19:09:42.709Z,51.31
2018-04-22T19:12:10.199Z,52.47
2018-04-22T19:14:37.653Z,52.29
2018-04-22T19:17:05.134Z,52.18
2018-04-22T19:19:32.594Z,53.36
2018-04-22T19:22:00.075Z,53.85
2018-04-22T19:24:27.561Z,54.99
2018-04-22T19:26:55.037Z,57.27
2018-04-22T19:29:22.498Z,58.14
2018-04-22T19:31:49.954Z,59.14
2018-04-22T19:34:17.431Z,59.94
2018-04-22T19:36:44.894Z,60.70
2018-04-22T19:39:12.369Z,61.30
2018-04-22T19:41:39.830Z,61.59
2018-04-22T19:44:07.320Z,61.37
2018-04-22T19:46:34.785Z,61.18
2018-04-22T19:49:02.266Z,61.64
2018-04-22T19:51:29.741Z,61.61
2018-04-22T19:53:57.230Z,61.37
2018-04-22T19:56:25.330Z,62.19
2018-04-22T19:58:52.809Z,63.09
2018-04-22T20:01:20.267Z,64.11
2018-04-22T20:03:47.753Z,64.41
2018-04-22T20:06:15.213Z,64.92
2018-04-22T20:08:42.689Z,65.23
2018-04-22T20:11:10.160Z,65.52
2018-04-22T20:13:38.390Z,65.60
2018-04-22T20:16:05.849Z,65.97
2018-04-22T20:18:33.329Z,66.52
2018-04-22T20:21:01.256Z,66.48
2018-04-22T20:23:28.733Z,67.03
2018-04-22T20:25:56.194Z,67.34
2018-04-22T20:28:23.682Z,67.62
2018-04-22T20:30:51.149Z,67.88
2018-04-22T20:33:18.633Z,68.33
2018-04-22T20:35:46.102Z,68.22
2018-04-22T20:38:13.577Z,68.18
2018-04-22T20:40:41.031Z,68.32
2018-04-22T20:43:08.507Z,68.17
2018-04-22T20:45:35.988Z,68.34
2018-04-22T20:48:04.199Z,67.93
2018-04-22T20:50:31.670Z,67.94
2018-04-22T20:52:59.130Z,67.94
2018-04-22T20:55:26.615Z,68.35
2018-04-22T20:57:54.090Z,68.00
2018-04-22T21:00:21.605Z,67.92
2018-04-22T21:02:49.070Z,68.05
2018-04-22T21:05:16.546Z,68.16
2018-04-22T21:07:43.993Z,68.41
2018-04-22T21:10:11.474Z,68.91
2018-04-22T21:12:38.941Z,67.99
2018-04-22T21:15:06.420Z,68.06
2018-04-22T21:17:33.884Z,68.51
2018-04-22T21:20:01.363Z,69.01
2018-04-22T21:22:28.842Z,69.28
2018-04-22T21:24:56.330Z,68.88
2018-04-22T21:27:23.789Z,69.13
2018-04-22T21:29:51.274Z,68.31
2018-04-22T21:32:18.747Z,68.03
2018-04-22T21:34:46.220Z,68.65
2018-04-22T21:37:13.686Z,68.87
2018-04-22T21:39:41.209Z,68.78
2018-04-22T21:42:08.667Z,69.09
2018-04-22T21:44:36.153Z,68.81
2018-04-22T21:47:03.625Z,69.14
2018-04-22T21:49:31.101Z,69.71
2018-04-22T21:51:58.557Z,69.84
2018-04-22T21:54:26.037Z,68.07
2018-04-22T21:56:53.502Z,67.35
2018-04-22T21:59:20.982Z,67.82
2018-04-22T22:01:48.441Z,67.26
2018-04-22T22:04:15.918Z,67.21
2018-04-22T22:06:43.381Z,66.53
2018-04-22T22:09:10.856Z,66.04
2018-04-22T22:11:38.313Z,67.24
2018-04-22T22:14:05.785Z,66.35
2018-04-22T22:16:33.565Z,66.73
2018-04-22T22:19:01.030Z,67.19
2018-04-22T22:21:28.512Z,66.67
2018-04-22T22:23:55.974Z,66.43
2018-04-22T22:26:23.445Z,66.23
2018-04-22T22:28:50.917Z,66.73
2018-04-22T22:31:18.389Z,66.88
2018-04-22T22:33:45.849Z,67.49
2018-04-22T22:36:13.336Z,68.05
2018-04-22T22:38:40.798Z,67.97
2018-04-22T22:41:08.889Z,67.79
2018-04-22T22:43:37.244Z,68.26
2018-04-22T22:46:04.738Z,68.26
2018-04-22T22:48:32.197Z,68.00
2018-04-22T22:50:59.678Z,67.83
2018-04-22T22:53:27.143Z,66.96
2018-04-22T22:55:54.621Z,67.14
2018-04-22T22:58:22.077Z,66.84
2018-04-22T23:00:49.555Z,67.83
2018-04-22T23:03:17.018Z,66.51
2018-04-22T23:05:44.503Z,65.87
2018-04-22T23:08:11.973Z,65.87
2018-04-22T23:10:39.469Z,64.79
2018-04-22T23:13:06.929Z,64.43
2018-04-22T23:15:34.406Z,65.23
2018-04-22T23:18:01.878Z,64.48
2018-04-22T23:20:29.358Z,64.19
2018-04-22T23:22:56.820Z,63.67
2018-04-22T23:25:24.305Z,63.74
2018-04-22T23:27:51.761Z,63.88
2018-04-22T23:30:19.245Z,63.20
2018-04-22T23:32:46.703Z,62.64
2018-04-22T23:35:14.183Z,59.26
2018-04-22T23:37:41.659Z,100.00
2018-04-22T23:40:09.150Z,100.00
2018-04-22T23:42:36.631Z,100.00
2018-04-22T23:45:04.157Z,100.00
2018-04-22T23:47:31.631Z,100.00
2018-04-22T23:49:59.101Z,100.00
2018-04-22T23:52:26.593Z,100.00
2018-04-22T23:54:54.066Z,100.00
2018-04-22T23:57:21.554Z,100.00
2018-04-22T23:59:49.134Z,100.00
